Time;durP1;ratioP1;P1;durP2;ratioP2;P2;SDS_P1;SDS_P2;PMS_P1;PMS_P2;Temp;Humidity;BMP_temperature;BMP_pressure;BME280_temperature;BME280_humidity;BME280_pressure;Samples;Min_cycle;Max_cycle;Signal;HPM_P1;HPM_P2
2021/08/28 00:01:03;;;;;;;38.53;17.10;;;;;;;13.74;100.00;100614.76;1724802;81;20977;-46
2021/08/28 00:03:30;;;;;;;35.30;15.93;;;;;;;13.70;100.00;100613.15;1724243;81;20987;-47
2021/08/28 00:05:56;;;;;;;51.40;17.57;;;;;;;13.63;100.00;100612.92;1725989;83;20987;-46
2021/08/28 00:08:23;;;;;;;49.45;20.32;;;;;;;13.57;100.00;100606.61;1724980;82;21143;-46
2021/08/28 00:10:49;;;;;;;63.17;21.30;;;;;;;13.54;100.00;100610.14;1723433;81;21036;-46
2021/08/28 00:13:16;;;;;;;47.45;17.65;;;;;;;13.52;100.00;100607.20;1723579;82;21090;-46
2021/08/28 00:15:42;;;;;;;40.10;16.77;;;;;;;13.52;100.00;100601.99;1723359;82;21811;-46
2021/08/28 00:18:10;;;;;;;54.60;20.65;;;;;;;13.50;100.00;100600.26;1724872;81;20962;-46
2021/08/28 00:20:38;;;;;;;43.25;17.80;;;;;;;13.46;100.00;100605.14;1725223;81;22362;-46
2021/08/28 00:23:05;;;;;;;55.05;23.40;;;;;;;13.44;100.00;100606.94;1696157;83;20978;-45
2021/08/28 00:25:33;;;;;;;70.40;27.25;;;;;;;13.44;100.00;100610.84;1689511;83;21018;-46
2021/08/28 00:28:00;;;;;;;65.97;27.50;;;;;;;13.45;100.00;100609.95;1671883;84;21049;-46
2021/08/28 00:30:27;;;;;;;49.90;20.55;;;;;;;13.44;100.00;100606.94;1668888;84;21038;-46
2021/08/28 00:32:53;;;;;;;48.00;20.17;;;;;;;13.47;100.00;100610.75;1646191;87;21173;-46
2021/08/28 00:35:21;;;;;;;45.50;20.43;;;;;;;13.50;100.00;100609.36;1668992;84;21036;-45
2021/08/28 00:37:49;;;;;;;43.63;21.60;;;;;;;13.54;100.00;100614.04;1671507;84;21550;-46
2021/08/28 00:40:16;;;;;;;66.25;25.10;;;;;;;13.56;100.00;100608.80;1670232;84;21441;-46
2021/08/28 00:42:55;;;;;;;65.20;22.25;;;;;;;13.59;100.00;100611.31;1673025;84;20948;-45
2021/08/28 00:45:30;;;;;;;42.85;19.70;;;;;;;13.58;100.00;100612.22;1671583;84;21104;-46
2021/08/28 00:48:03;;;;;;;40.73;17.82;;;;;;;13.57;100.00;100618.31;1662532;84;20976;-46
2021/08/28 00:50:31;;;;;;;47.30;20.27;;;;;;;13.55;100.00;100621.41;1633768;85;21442;-46
2021/08/28 00:52:58;;;;;;;71.25;23.95;;;;;;;13.55;100.00;100617.51;1675229;84;20964;-46
2021/08/28 00:55:26;;;;;;;58.65;26.48;;;;;;;13.53;100.00;100618.00;1677024;84;21027;-46
2021/08/28 00:57:59;;;;;;;63.95;26.48;;;;;;;13.48;100.00;100620.26;1695498;83;21672;-45
2021/08/28 01:00:26;;;;;;;74.42;28.92;;;;;;;13.46;100.00;100631.15;1677566;84;21103;-46
2021/08/28 01:02:52;;;;;;;101.85;27.95;;;;;;;13.43;100.00;100629.94;1680742;84;21585;-46
2021/08/28 01:05:24;;;;;;;69.12;29.27;;;;;;;13.40;100.00;100629.99;1671712;84;20987;-47
2021/08/28 01:08:11;;;;;;;68.72;28.05;;;;;;;13.38;100.00;100636.98;1675842;84;21018;-48
2021/08/28 01:11:18;;;;;;;81.12;31.30;;;;;;;13.34;100.00;100628.41;1631667;84;21329;-47
2021/08/28 01:13:52;;;;;;;72.87;27.40;;;;;;;13.28;100.00;100631.17;1703322;82;21022;-47
2021/08/28 01:16:20;;;;;;;71.25;26.42;;;;;;;13.26;100.00;100629.07;1702689;82;21038;-47
2021/08/28 01:18:48;;;;;;;65.42;26.23;;;;;;;13.22;100.00;100628.75;1686166;83;21059;-46
2021/08/28 01:21:29;;;;;;;84.25;28.60;;;;;;;13.19;100.00;100628.84;1711304;82;20905;-46
2021/08/28 01:24:06;;;;;;;84.52;24.05;;;;;;;13.14;100.00;100628.95;1694989;82;21873;-45
2021/08/28 01:27:02;;;;;;;57.43;18.55;;;;;;;13.09;100.00;100625.62;1707662;83;20897;-46
2021/08/28 01:29:34;;;;;;;35.98;15.40;;;;;;;13.06;100.00;100633.50;1706619;82;21074;-46
2021/08/28 01:32:02;;;;;;;39.35;20.37;;;;;;;13.06;100.00;100629.61;1711692;82;20933;-46
2021/08/28 01:34:31;;;;;;;33.02;15.85;;;;;;;13.06;100.00;100634.34;1709901;82;21007;-46
2021/08/28 01:36:58;;;;;;;42.15;17.95;;;;;;;13.06;100.00;100629.14;1707908;82;21116;-46
2021/08/28 01:39:43;;;;;;;42.73;18.85;;;;;;;13.06;100.00;100630.91;1703482;82;21987;-46
2021/08/28 01:42:11;;;;;;;38.05;18.67;;;;;;;13.04;100.00;100629.63;1705147;81;20960;-47
2021/08/28 01:44:38;;;;;;;30.80;18.92;;;;;;;13.03;100.00;100627.93;1707440;82;20955;-47
2021/08/28 01:47:07;;;;;;;30.65;17.10;;;;;;;13.01;100.00;100635.34;1708519;82;20941;-47
2021/08/28 01:49:34;;;;;;;58.20;17.65;;;;;;;12.99;100.00;100634.53;1698117;83;21777;-46
2021/08/28 01:52:02;;;;;;;40.70;16.95;;;;;;;12.97;100.00;100637.63;1687450;83;21576;-46
2021/08/28 01:54:30;;;;;;;26.30;16.02;;;;;;;12.94;100.00;100634.67;1712395;82;21459;-46
2021/08/28 01:56:56;;;;;;;45.33;16.32;;;;;;;12.92;100.00;100637.30;1711682;82;20972;-46
2021/08/28 01:59:23;;;;;;;33.35;16.62;;;;;;;12.89;100.00;100637.37;1711004;82;20977;-46
2021/08/28 02:01:52;;;;;;;36.93;14.20;;;;;;;12.88;100.00;100634.38;1709068;82;21298;-46
2021/08/28 02:04:19;;;;;;;28.10;15.20;;;;;;;12.86;100.00;100633.56;1709479;82;21026;-47
2021/08/28 02:07:06;;;;;;;28.30;15.48;;;;;;;12.86;100.00;100624.90;1691854;82;21020;-48
2021/08/28 02:10:02;;;;;;;36.98;14.58;;;;;;;12.84;100.00;100634.05;1707394;82;21003;-47
2021/08/28 02:12:37;;;;;;;59.00;15.15;;;;;;;12.82;100.00;100627.17;1719676;83;20933;-47
2021/08/28 02:15:10;;;;;;;43.23;14.73;;;;;;;12.79;100.00;100628.13;1690244;83;20934;-46
2021/08/28 02:17:46;;;;;;;38.10;14.93;;;;;;;12.77;100.00;100622.11;1708906;82;22090;-47
2021/08/28 02:20:13;;;;;;;42.58;14.25;;;;;;;12.78;100.00;100629.84;1704349;82;21607;-46
2021/08/28 02:22:47;;;;;;;30.27;13.75;;;;;;;12.78;100.00;100622.06;1698605;82;21570;-47
2021/08/28 02:25:46;;;;;;;70.32;14.43;;;;;;;12.77;100.00;100620.35;1708620;82;21015;-47
2021/08/28 02:28:14;;;;;;;34.88;13.78;;;;;;;12.77;100.00;100623.41;1706418;82;21057;-46
2021/08/28 02:30:41;;;;;;;33.65;14.55;;;;;;;12.75;100.00;100630.36;1709771;82;20983;-46
2021/08/28 02:33:09;;;;;;;31.15;14.03;;;;;;;12.73;100.00;100625.65;1697828;82;21620;-46
2021/08/28 02:35:38;;;;;;;63.08;15.48;;;;;;;12.73;100.00;100625.22;1711468;82;21533;-47
2021/08/28 02:38:05;;;;;;;66.28;16.20;;;;;;;12.73;100.00;100625.22;1663353;82;21541;-46
2021/08/28 02:40:32;;;;;;;39.27;14.05;;;;;;;12.72;100.00;100621.34;1706012;82;21632;-47
2021/08/28 02:42:58;;;;;;;15.53;13.28;;;;;;;12.70;100.00;100621.83;1706300;83;20980;-47
2021/08/28 02:45:28;;;;;;;17.60;13.38;;;;;;;12.67;100.00;100632.30;1707272;82;21582;-46
2021/08/28 02:47:57;;;;;;;24.35;13.68;;;;;;;12.63;100.00;100626.31;1706994;82;21063;-47
2021/08/28 02:50:24;;;;;;;29.12;15.40;;;;;;;12.62;100.00;100624.19;1706791;82;21071;-48
2021/08/28 02:52:52;;;;;;;27.05;15.40;;;;;;;12.59;100.00;100626.86;1706988;82;21187;-46
2021/08/28 02:55:19;;;;;;;27.25;15.03;;;;;;;12.56;100.00;100622.17;1707095;82;21011;-46
2021/08/28 02:57:50;;;;;;;16.97;14.43;;;;;;;12.53;100.00;100618.35;1705222;83;21032;-46
2021/08/28 03:00:17;;;;;;;17.62;15.72;;;;;;;12.52;100.00;100629.20;1682611;83;21023;-47
2021/08/28 03:02:43;;;;;;;21.82;16.57;;;;;;;12.50;100.00;100630.95;1712059;82;21514;-46
2021/08/28 03:05:12;;;;;;;23.40;16.62;;;;;;;12.48;100.00;100632.73;1712235;82;21043;-46
2021/08/28 03:07:41;;;;;;;18.62;16.07;;;;;;;12.47;100.00;100633.19;1708596;82;20992;-47
2021/08/28 03:10:09;;;;;;;21.48;17.05;;;;;;;12.47;100.00;100631.03;1702812;82;20975;-46
2021/08/28 03:12:37;;;;;;;48.63;18.95;;;;;;;12.47;100.00;100633.63;1694861;82;20936;-46
2021/08/28 03:15:06;;;;;;;27.07;17.20;;;;;;;12.48;100.00;100636.63;1693582;83;21010;-46
2021/08/28 03:17:35;;;;;;;29.37;18.57;;;;;;;12.49;100.00;100636.61;1701913;81;21107;-46
2021/08/28 03:20:04;;;;;;;21.75;18.05;;;;;;;12.52;100.00;100635.69;1718119;81;21033;-46
2021/08/28 03:22:30;;;;;;;24.37;17.90;;;;;;;12.54;100.00;100637.80;1718771;82;21015;-46
2021/08/28 03:24:58;;;;;;;23.65;18.40;;;;;;;12.57;100.00;100639.03;1719070;82;21035;-45
2021/08/28 03:27:26;;;;;;;21.25;17.02;;;;;;;12.62;100.00;100638.89;1718859;81;21575;-46
2021/08/28 03:29:53;;;;;;;49.03;20.35;;;;;;;12.65;100.00;100639.69;1716190;81;21117;-46
2021/08/28 03:32:20;;;;;;;27.75;19.48;;;;;;;12.70;100.00;100647.80;1716863;81;21017;-46
2021/08/28 03:34:46;;;;;;;34.10;20.48;;;;;;;12.72;100.00;100643.42;1719715;81;21020;-46
2021/08/28 03:37:13;;;;;;;26.65;20.35;;;;;;;12.76;100.00;100648.98;1718127;82;21079;-46
2021/08/28 03:39:40;;;;;;;29.37;20.30;;;;;;;12.79;100.00;100643.70;1717307;81;21075;-46
2021/08/28 03:42:08;;;;;;;22.00;19.52;;;;;;;12.85;100.00;100650.04;1718576;81;21758;-46
2021/08/28 03:44:39;;;;;;;25.48;19.87;;;;;;;12.89;100.00;100653.42;1718929;81;21050;-46
2021/08/28 03:47:07;;;;;;;26.00;20.68;;;;;;;12.95;100.00;100657.16;1700580;81;20984;-46
2021/08/28 03:49:34;;;;;;;26.52;20.40;;;;;;;13.03;100.00;100655.22;1694579;83;21037;-45
2021/08/28 03:52:03;;;;;;;31.55;20.32;;;;;;;13.11;100.00;100654.16;1718689;81;20964;-46
2021/08/28 03:54:30;;;;;;;25.82;19.95;;;;;;;13.20;100.00;100648.27;1719412;81;21220;-46
2021/08/28 03:56:56;;;;;;;26.05;20.10;;;;;;;13.31;100.00;100643.25;1717050;81;21027;-46
2021/08/28 03:59:23;;;;;;;24.25;19.52;;;;;;;13.44;100.00;100643.34;1717454;81;21109;-47
2021/08/28 04:01:51;;;;;;;25.68;19.90;;;;;;;13.58;100.00;100634.32;1718070;81;21312;-47
2021/08/28 04:04:19;;;;;;;32.33;20.27;;;;;;;13.73;100.00;100630.42;1717776;81;21564;-47
2021/08/28 04:06:47;;;;;;;34.08;22.70;;;;;;;13.90;100.00;100640.34;1720742;83;20933;-46
2021/08/28 04:09:14;;;;;;;32.83;23.80;;;;;;;14.11;100.00;100649.71;1719791;81;20939;-47
2021/08/28 04:11:44;;;;;;;37.20;24.55;;;;;;;14.39;100.00;100647.09;1695027;83;21059;-47
2021/08/28 04:14:10;;;;;;;33.25;22.95;;;;;;;14.75;100.00;100649.91;1720668;83;21019;-47
2021/08/28 04:16:37;;;;;;;35.78;24.77;;;;;;;15.09;100.00;100652.23;1720207;81;20994;-48
2021/08/28 04:19:05;;;;;;;42.53;25.55;;;;;;;15.42;100.00;100647.20;1719514;81;21848;-47
2021/08/28 04:21:45;;;;;;;29.87;21.73;;;;;;;15.72;100.00;100650.91;1719027;81;20985;-47
2021/08/28 04:24:14;;;;;;;35.90;22.50;;;;;;;16.07;100.00;100643.56;1696907;81;20976;-47
2021/08/28 04:26:51;;;;;;;30.32;23.30;;;;;;;16.37;100.00;100645.02;1716370;82;20988;-47
2021/08/28 04:29:18;;;;;;;33.73;23.80;;;;;;;16.63;100.00;100638.75;1719636;81;21019;-47
2021/08/28 04:31:45;;;;;;;35.60;22.95;;;;;;;16.84;100.00;100642.70;1719662;83;21143;-47
2021/08/28 04:34:13;;;;;;;30.10;22.65;;;;;;;17.07;100.00;100650.07;1718390;81;21612;-47
2021/08/28 04:36:41;;;;;;;29.37;22.22;;;;;;;17.30;100.00;100649.50;1684424;83;21474;-48
2021/08/28 04:39:07;;;;;;;33.73;23.35;;;;;;;17.51;100.00;100642.02;1719140;81;21014;-46
2021/08/28 04:41:34;;;;;;;28.15;22.00;;;;;;;17.74;100.00;100646.69;1718757;81;20976;-47
2021/08/28 04:44:02;;;;;;;30.55;22.10;;;;;;;18.00;100.00;100647.73;1718806;81;21159;-49
2021/08/28 04:46:32;;;;;;;30.50;22.58;;;;;;;18.26;100.00;100646.99;1715579;81;20996;-48
2021/08/28 04:49:01;;;;;;;31.42;22.20;;;;;;;18.49;100.00;100641.49;1719877;81;20994;-48
2021/08/28 04:51:32;;;;;;;25.88;21.37;;;;;;;18.69;100.00;100639.64;1717258;81;21011;-48
2021/08/28 04:53:59;;;;;;;28.27;20.70;;;;;;;18.91;100.00;100630.70;1720077;83;20988;-47
2021/08/28 04:56:26;;;;;;;32.10;21.85;;;;;;;19.07;100.00;100632.10;1719577;81;21141;-47
2021/08/28 04:58:52;;;;;;;33.33;22.48;;;;;;;19.21;100.00;100628.80;1682669;83;21866;-47
2021/08/28 05:01:37;;;;;;;27.22;22.20;;;;;;;19.32;100.00;100628.20;1679004;83;22230;-47
2021/08/28 05:04:09;;;;;;;26.87;20.57;;;;;;;19.47;100.00;100628.72;1640706;85;21074;-48
2021/08/28 05:06:35;;;;;;;30.80;20.75;;;;;;;19.64;100.00;100631.75;1623799;85;21750;-47
2021/08/28 05:09:04;;;;;;;29.75;20.60;;;;;;;19.80;100.00;100640.13;1676442;84;21149;-48
2021/08/28 05:11:31;;;;;;;26.05;21.37;;;;;;;19.94;100.00;100640.70;1670183;84;21054;-48
2021/08/28 05:13:58;;;;;;;27.62;20.75;;;;;;;20.03;100.00;100645.45;1660245;84;20992;-49
2021/08/28 05:16:25;;;;;;;25.40;19.50;;;;;;;20.12;100.00;100652.45;1683700;85;21038;-47
2021/08/28 05:18:53;;;;;;;25.05;19.20;;;;;;;20.14;100.00;100652.73;1661145;85;21008;-48
2021/08/28 05:21:23;;;;;;;25.23;19.42;;;;;;;20.16;100.00;100650.03;1670333;84;20963;-47
2021/08/28 05:23:55;;;;;;;29.42;19.35;;;;;;;20.18;100.00;100655.56;1664199;85;21007;-47
2021/08/28 05:26:40;;;;;;;25.23;17.37;;;;;;;20.23;100.00;100656.18;1665236;84;22168;-48
2021/08/28 05:29:07;;;;;;;21.93;16.97;;;;;;;20.29;100.00;100658.91;1667815;84;21374;-47
2021/08/28 05:31:33;;;;;;;23.60;17.12;;;;;;;20.28;100.00;100661.16;1671118;84;20915;-49
2021/08/28 05:34:00;;;;;;;21.10;16.40;;;;;;;20.22;100.00;100661.05;1671438;84;21071;-48
2021/08/28 05:36:28;;;;;;;18.73;16.62;;;;;;;20.18;100.00;100667.87;1648248;85;21067;-47
2021/08/28 05:38:57;;;;;;;21.75;15.93;;;;;;;20.16;99.34;100668.42;1620020;84;21052;-47
2021/08/28 05:41:23;;;;;;;17.60;15.72;;;;;;;20.13;99.15;100664.17;1649432;86;20959;-47
2021/08/28 05:43:50;;;;;;;20.92;15.15;;;;;;;20.14;98.89;100670.30;1673517;85;21070;-47
2021/08/28 05:46:34;;;;;;;19.73;15.55;;;;;;;20.15;98.70;100673.30;1660039;84;21156;-47
2021/08/28 05:49:08;;;;;;;20.50;15.88;;;;;;;20.14;98.03;100669.81;1656154;84;21540;-47
2021/08/28 05:51:39;;;;;;;18.40;16.48;;;;;;;20.09;97.91;100670.54;1643839;85;21057;-48
2021/08/28 05:54:05;;;;;;;18.07;15.70;;;;;;;20.08;97.45;100670.16;1660886;86;20986;-47
2021/08/28 05:56:33;;;;;;;21.75;14.98;;;;;;;20.04;97.22;100674.72;1635607;85;21055;-47
2021/08/28 05:59:00;;;;;;;19.00;15.00;;;;;;;20.02;96.97;100666.56;1658584;85;21144;-47
2021/08/28 06:01:27;;;;;;;17.15;15.32;;;;;;;20.01;96.69;100666.19;1659468;85;20956;-49
2021/08/28 06:03:53;;;;;;;16.90;15.10;;;;;;;20.03;96.95;100664.31;1658198;85;20956;-47
2021/08/28 06:06:21;;;;;;;25.40;16.52;;;;;;;20.07;97.27;100665.35;1658463;86;21443;-47
2021/08/28 06:09:06;;;;;;;19.27;16.25;;;;;;;20.11;96.30;100671.30;1657177;85;21038;-48
2021/08/28 06:11:43;;;;;;;22.13;16.00;;;;;;;20.09;96.56;100670.09;1624298;86;23150;-47
2021/08/28 06:14:28;;;;;;;18.62;15.05;;;;;;;20.14;96.62;100669.81;1607379;86;20993;-48
2021/08/28 06:16:56;;;;;;;16.07;14.43;;;;;;;20.19;95.96;100668.25;1630585;87;20962;-47
2021/08/28 06:19:23;;;;;;;16.07;13.88;;;;;;;20.21;95.31;100669.02;1651027;85;20959;-48
2021/08/28 06:21:50;;;;;;;15.35;13.75;;;;;;;20.22;93.01;100672.02;1621360;87;20982;-48
2021/08/28 06:24:18;;;;;;;18.25;15.85;;;;;;;20.32;94.14;100673.19;1672278;83;21797;-47
2021/08/28 06:26:47;;;;;;;18.45;15.32;;;;;;;20.40;94.08;100672.77;1679626;85;20999;-48
2021/08/28 06:29:14;;;;;;;18.00;15.68;;;;;;;20.52;93.42;100673.84;1687970;83;21042;-47
2021/08/28 06:31:42;;;;;;;17.42;14.00;;;;;;;20.61;93.46;100681.23;1665328;85;21027;-47
2021/08/28 06:34:08;;;;;;;17.73;15.85;;;;;;;20.73;93.15;100684.08;1692644;83;21043;-48
2021/08/28 06:36:36;;;;;;;19.52;15.23;;;;;;;20.88;92.61;100689.81;1686869;83;21878;-49
2021/08/28 06:39:05;;;;;;;20.17;14.47;;;;;;;21.01;91.63;100691.25;1694378;83;20943;-47
2021/08/28 06:41:49;;;;;;;16.10;13.58;;;;;;;21.18;90.55;100691.56;1703034;82;21010;-46
2021/08/28 06:44:35;;;;;;;17.73;14.43;;;;;;;21.34;88.77;100692.80;1687848;83;28378;-47
2021/08/28 06:47:22;;;;;;;16.80;14.03;;;;;;;21.47;87.79;100692.91;1700142;83;21022;-47
2021/08/28 06:50:09;;;;;;;18.80;14.80;;;;;;;21.54;86.05;100690.27;1689140;83;21450;-47
2021/08/28 06:52:37;;;;;;;15.30;13.22;;;;;;;21.59;85.55;100682.55;1664704;83;21957;-47
2021/08/28 06:55:22;;;;;;;16.12;13.13;;;;;;;21.62;84.91;100687.17;1693714;83;20892;-47
2021/08/28 06:57:56;;;;;;;16.42;14.03;;;;;;;21.70;84.65;100687.20;1640262;85;20982;-48
2021/08/28 07:00:24;;;;;;;15.13;13.60;;;;;;;21.84;84.88;100688.97;1671952;83;20994;-47
2021/08/28 07:03:01;;;;;;;18.10;13.65;;;;;;;21.99;84.25;100694.61;1658227;85;21166;-47
2021/08/28 07:05:28;;;;;;;15.68;13.38;;;;;;;22.15;83.02;100691.02;1694551;82;20995;-47
2021/08/28 07:07:57;;;;;;;15.85;13.78;;;;;;;22.28;82.26;100693.22;1644414;85;20971;-48
2021/08/28 07:10:25;;;;;;;14.20;12.75;;;;;;;22.43;81.73;100701.10;1643765;85;20951;-47
2021/08/28 07:12:52;;;;;;;15.95;13.50;;;;;;;22.56;81.35;100697.23;1640390;83;21568;-48
2021/08/28 07:15:19;;;;;;;15.03;13.03;;;;;;;22.72;80.52;100699.70;1716479;81;21714;-48
2021/08/28 07:17:48;;;;;;;14.87;13.18;;;;;;;22.88;79.76;100700.38;1720958;82;21020;-47
2021/08/28 07:20:14;;;;;;;18.65;13.10;;;;;;;23.06;79.02;100702.72;1719724;81;20923;-48
2021/08/28 07:22:43;;;;;;;17.90;14.15;;;;;;;23.25;77.21;100698.41;1719237;81;20928;-47
2021/08/28 07:28:15;;;;;;;14.53;12.47;;;;;;;23.69;75.55;100683.05;1814038;78;22807;-48
2021/08/28 07:31:00;;;;;;;16.82;13.62;;;;;;;23.83;75.29;100686.05;1771674;80;20948;-49
2021/08/28 07:33:27;;;;;;;15.25;13.62;;;;;;;23.91;70.03;100692.11;1782050;79;21133;-48
2021/08/28 07:35:55;;;;;;;21.02;12.98;;;;;;;23.97;70.97;100688.53;1764774;79;20889;-49
2021/08/28 07:38:22;;;;;;;14.60;12.60;;;;;;;24.16;71.29;100687.73;1774699;79;21159;-49
2021/08/28 07:40:50;;;;;;;16.42;13.30;;;;;;;24.32;70.18;100683.00;1710030;81;21599;-48
2021/08/28 07:43:16;;;;;;;18.20;13.60;;;;;;;24.49;69.08;100684.89;1752771;81;20892;-48
2021/08/28 07:45:47;;;;;;;16.25;13.40;;;;;;;24.56;67.54;100687.94;1750740;81;21008;-48
2021/08/28 07:48:15;;;;;;;15.00;12.88;;;;;;;24.63;67.43;100690.02;1688823;83;20949;-48
2021/08/28 07:50:43;;;;;;;14.45;12.25;;;;;;;24.78;67.41;100688.05;1718123;82;21013;-49
2021/08/28 07:53:10;;;;;;;17.27;12.00;;;;;;;24.98;67.65;100684.85;1731718;82;20939;-49
2021/08/28 07:55:38;;;;;;;18.70;12.88;;;;;;;25.19;65.61;100683.22;1724600;82;20980;-48
2021/08/28 07:58:05;;;;;;;16.87;13.28;;;;;;;25.37;64.27;100689.35;1722071;81;21177;-48
2021/08/28 08:00:31;;;;;;;17.85;12.90;;;;;;;25.53;64.64;100682.44;1736098;81;21700;-49
2021/08/28 08:02:58;;;;;;;16.65;12.70;;;;;;;25.71;64.79;100677.48;1730188;82;21007;-48
2021/08/28 08:05:32;;;;;;;18.40;12.30;;;;;;;25.93;63.75;100677.92;1683628;82;20970;-49
2021/08/28 08:08:06;;;;;;;16.07;11.60;;;;;;;26.14;63.11;100682.94;1698745;82;21461;-49
2021/08/28 08:10:53;;;;;;;15.15;11.75;;;;;;;26.19;60.13;100675.50;1725595;81;21152;-49
2021/08/28 08:13:38;;;;;;;15.83;12.28;;;;;;;26.25;60.12;100679.80;1729198;81;20897;-49
2021/08/28 08:16:23;;;;;;;19.42;13.05;;;;;;;26.41;59.86;100683.03;1733539;82;21440;-48
2021/08/28 08:19:04;;;;;;;29.60;12.88;;;;;;;26.38;59.89;100686.77;1729653;81;21043;-49
2021/08/28 08:21:35;;;;;;;16.00;11.80;;;;;;;26.27;60.60;100685.00;1688467;81;21042;-49
2021/08/28 08:24:22;;;;;;;14.83;11.57;;;;;;;26.20;59.83;100689.95;1728021;82;22343;-48
2021/08/28 08:27:07;;;;;;;15.35;11.95;;;;;;;26.24;60.98;100679.94;1719920;82;20936;-49
2021/08/28 08:29:54;;;;;;;31.70;12.33;;;;;;;26.45;60.49;100689.77;1637436;85;21023;-49
2021/08/28 08:32:22;;;;;;;27.20;12.30;;;;;;;26.68;60.06;100686.05;1702973;82;21441;-48
2021/08/28 08:34:49;;;;;;;19.17;11.40;;;;;;;26.83;59.91;100687.91;1682518;82;21486;-49
2021/08/28 08:37:17;;;;;;;20.52;11.50;;;;;;;27.01;59.24;100682.02;1716350;81;21062;-50
2021/08/28 08:39:44;;;;;;;20.27;10.72;;;;;;;27.16;58.45;100677.72;1713305;82;21031;-48
2021/08/28 08:42:11;;;;;;;24.47;9.65;;;;;;;27.33;56.67;100666.95;1710190;82;21002;-49
2021/08/28 08:44:39;;;;;;;11.97;8.95;;;;;;;27.58;55.16;100659.53;1682379;82;21063;-49
2021/08/28 08:47:07;;;;;;;15.85;9.50;;;;;;;27.87;52.26;100662.29;1679390;82;21060;-49
2021/08/28 08:49:33;;;;;;;20.90;8.43;;;;;;;28.12;52.06;100658.77;1655330;82;21108;-50
2021/08/28 08:52:00;;;;;;;19.00;9.78;;;;;;;28.37;52.79;100661.38;1713549;82;20934;-48
2021/08/28 08:54:30;;;;;;;17.07;9.38;;;;;;;28.62;51.68;100656.98;1708603;82;21031;-48
2021/08/28 08:56:57;;;;;;;13.88;8.03;;;;;;;28.83;48.13;100647.50;1750727;80;21541;-49
2021/08/28 08:59:24;;;;;;;16.50;7.72;;;;;;;28.89;48.97;100651.43;1745542;80;21497;-49
2021/08/28 09:01:51;;;;;;;10.88;7.70;;;;;;;28.73;48.37;100656.80;1751504;80;21932;-47
2021/08/28 09:04:19;;;;;;;16.85;7.15;;;;;;;28.63;48.99;100664.80;1758120;80;20940;-48
2021/08/28 09:06:49;;;;;;;16.23;7.25;;;;;;;28.59;48.41;100658.59;1745573;80;20986;-47
2021/08/28 09:09:16;;;;;;;10.78;6.17;;;;;;;28.79;48.08;100658.10;1753814;80;20956;-48
2021/08/28 09:12:05;;;;;;;7.58;6.10;;;;;;;28.96;47.56;100657.37;1757137;80;21057;-49
2021/08/28 09:14:32;;;;;;;7.12;5.60;;;;;;;28.98;46.66;100654.55;1749669;80;21125;-52
2021/08/28 09:17:16;;;;;;;8.63;5.30;;;;;;;28.88;44.82;100659.89;1737964;81;20964;-49
2021/08/28 09:19:42;;;;;;;7.70;5.53;;;;;;;28.77;45.85;100664.03;1759501;80;20972;-48
2021/08/28 09:22:30;;;;;;;6.87;5.92;;;;;;;28.87;48.12;100650.23;1727447;81;20980;-48
2021/08/28 09:25:03;;;;;;;12.63;6.87;;;;;;;28.79;46.38;100653.59;1756218;80;21741;-48
2021/08/28 09:27:43;;;;;;;9.08;7.08;;;;;;;28.34;45.70;100657.67;1766388;80;21096;-49
2021/08/28 09:30:31;;;;;;;12.53;7.17;;;;;;;27.96;47.69;100660.13;1758366;80;20971;-48
2021/08/28 09:33:01;;;;;;;8.50;6.67;;;;;;;27.82;49.36;100652.56;1738788;80;20988;-50
2021/08/28 09:35:35;;;;;;;9.03;5.95;;;;;;;27.91;50.69;100653.05;1761687;80;20999;-50
2021/08/28 09:38:05;;;;;;;13.55;7.30;;;;;;;27.86;49.09;100651.77;1761516;80;21003;-49
2021/08/28 09:40:39;;;;;;;7.37;6.28;;;;;;;27.80;50.70;100650.02;1757508;80;21096;-48
2021/08/28 09:43:11;;;;;;;7.58;6.55;;;;;;;28.07;49.28;100655.17;1699274;83;21584;-49
2021/08/28 09:45:38;;;;;;;7.47;6.30;;;;;;;28.01;48.94;100648.23;1737240;80;21044;-48
2021/08/28 09:48:09;;;;;;;13.13;6.67;;;;;;;27.86;48.69;100648.64;1718321;82;20988;-50
2021/08/28 09:50:41;;;;;;;6.65;5.80;;;;;;;28.10;51.02;100649.58;1763048;80;21254;-49
2021/08/28 09:53:13;;;;;;;11.22;6.12;;;;;;;28.58;49.81;100653.75;1720652;79;20984;-49
2021/08/28 09:55:41;;;;;;;6.70;5.90;;;;;;;28.89;47.82;100650.92;1762658;80;20985;-49
2021/08/28 09:58:09;;;;;;;9.48;5.90;;;;;;;28.90;47.26;100656.59;1765967;80;20938;-49
2021/08/28 10:00:43;;;;;;;7.83;6.37;;;;;;;28.86;47.08;100659.20;1739441;81;21640;-49
2021/08/28 10:03:11;;;;;;;11.65;6.42;;;;;;;28.89;46.73;100659.42;1758410;80;20988;-50
2021/08/28 10:05:39;;;;;;;9.13;6.53;;;;;;;28.92;46.69;100652.47;1705141;83;21135;-49
2021/08/28 10:08:07;;;;;;;9.03;6.45;;;;;;;29.10;47.65;100664.06;1768956;80;20984;-49
2021/08/28 10:10:35;;;;;;;12.45;6.42;;;;;;;29.17;47.54;100663.47;1771103;80;20983;-48
2021/08/28 10:13:03;;;;;;;12.03;5.97;;;;;;;29.15;47.68;100662.27;1746445;80;21030;-48
2021/08/28 10:15:33;;;;;;;11.48;6.42;;;;;;;29.17;46.41;100660.30;1767158;80;21564;-48
2021/08/28 10:18:00;;;;;;;15.65;6.60;;;;;;;29.32;46.93;100662.03;1763090;80;21946;-48
2021/08/28 10:20:28;;;;;;;15.40;6.55;;;;;;;29.79;45.12;100656.27;1769405;80;21550;-49
2021/08/28 10:22:59;;;;;;;20.23;5.92;;;;;;;30.28;43.76;100653.78;1764854;80;20936;-49
2021/08/28 10:25:27;;;;;;;12.63;5.92;;;;;;;30.38;44.49;100661.23;1767950;80;20940;-50
2021/08/28 10:27:54;;;;;;;46.30;7.72;;;;;;;30.61;43.75;100664.79;1745445;80;20991;-49
2021/08/28 10:30:23;;;;;;;28.62;6.45;;;;;;;30.85;42.41;100665.96;1774776;80;22023;-50
2021/08/28 10:32:51;;;;;;;10.90;6.25;;;;;;;30.77;42.38;100666.73;1759420;80;21023;-48
2021/08/28 10:35:20;;;;;;;6.40;5.55;;;;;;;30.53;42.63;100655.66;1767616;80;21541;-50
2021/08/28 10:37:46;;;;;;;14.85;5.70;;;;;;;30.44;43.34;100658.42;1762999;80;20957;-49
2021/08/28 10:40:31;;;;;;;9.08;6.03;;;;;;;30.51;42.95;100656.83;1767842;80;21071;-49
2021/08/28 10:43:05;;;;;;;19.12;6.45;;;;;;;30.44;42.91;100653.08;1749941;80;21168;-50
2021/08/28 10:45:37;;;;;;;9.68;6.25;;;;;;;30.58;44.49;100652.54;1729223;82;20960;-50
2021/08/28 10:48:18;;;;;;;15.72;6.35;;;;;;;30.80;43.19;100659.23;1754946;80;21008;-49
2021/08/28 10:50:45;;;;;;;11.60;5.80;;;;;;;30.93;41.83;100655.31;1761065;80;21023;-49
2021/08/28 10:53:12;;;;;;;18.95;6.12;;;;;;;30.98;42.42;100663.70;1679560;83;21492;-48
2021/08/28 10:55:46;;;;;;;6.17;5.58;;;;;;;31.02;41.88;100657.03;1764713;80;21778;-48
2021/08/28 10:58:22;;;;;;;13.18;5.62;;;;;;;30.91;41.35;100651.45;1715759;82;20981;-48
2021/08/28 11:00:55;;;;;;;23.77;6.87;;;;;;;30.73;42.59;100658.70;1759632;80;21020;-49
2021/08/28 11:03:29;;;;;;;6.28;5.65;;;;;;;30.64;42.02;100659.95;1760948;80;20961;-49
2021/08/28 11:06:19;;;;;;;13.28;5.85;;;;;;;30.38;41.22;100652.71;1771913;80;21091;-49
2021/08/28 11:08:53;;;;;;;10.78;6.03;;;;;;;30.09;41.56;100650.30;1766157;80;21338;-49
2021/08/28 11:11:35;;;;;;;14.98;6.58;;;;;;;29.96;41.86;100653.30;1771075;80;20977;-48
2021/08/28 11:14:06;;;;;;;14.55;6.37;;;;;;;29.99;42.93;100653.48;1766420;80;20956;-49
2021/08/28 11:16:47;;;;;;;53.45;9.38;;;;;;;29.85;42.90;100657.02;1771210;80;21484;-49
2021/08/28 11:19:31;;;;;;;13.28;6.45;;;;;;;29.90;43.42;100657.41;1767942;80;21023;-48
2021/08/28 11:21:57;;;;;;;11.38;6.55;;;;;;;30.07;41.14;100653.10;1767884;80;21149;-48
2021/08/28 11:24:26;;;;;;;14.43;6.17;;;;;;;30.27;43.39;100640.95;1760408;80;20953;-49
2021/08/28 11:26:56;;;;;;;9.78;5.60;;;;;;;30.66;44.00;100640.61;1762484;80;21498;-49